Time;durP1;ratioP1;P1;durP2;ratioP2;P2;SDS_P1;SDS_P2;PMS_P1;PMS_P2;Temp;Humidity;BMP_temperature;BMP_pressure;BME280_temperature;BME280_humidity;BME280_pressure;Samples;Min_cycle;Max_cycle;Signal;HPM_P1;HPM_P2
2023/04/23 00:00:23;;;;;;;6.63;5.65;;;21.30;44.70;;;;;;5045659;28;20357;-49
2023/04/23 00:02:52;;;;;;;5.95;5.35;;;21.30;44.70;;;;;;5050799;28;20051;-48
2023/04/23 00:05:19;;;;;;;6.78;5.72;;;21.30;44.60;;;;;;5048669;28;20025;-53
2023/04/23 00:07:45;;;;;;;6.70;5.88;;;21.30;44.60;;;;;;5051382;28;20032;-49
2023/04/23 00:10:11;;;;;;;6.93;5.70;;;21.30;44.60;;;;;;5055158;28;20033;-55
2023/04/23 00:12:38;;;;;;;6.68;5.97;;;21.30;44.60;;;;;;5048650;28;20033;-51
2023/04/23 00:15:05;;;;;;;6.53;5.90;;;21.30;44.60;;;;;;5044211;28;20064;-48
2023/04/23 00:17:31;;;;;;;8.75;7.07;;;21.30;44.60;;;;;;5053261;28;20039;-46
2023/04/23 00:19:57;;;;;;;7.70;6.70;;;21.30;44.60;;;;;;5046325;28;20025;-46
2023/04/23 00:22:23;;;;;;;7.80;6.65;;;21.30;44.50;;;;;;5048217;28;20330;-47
2023/04/23 00:24:49;;;;;;;7.65;6.35;;;21.30;44.50;;;;;;5049503;28;20448;-49
2023/04/23 00:27:16;;;;;;;7.90;6.70;;;21.30;44.50;;;;;;5040892;28;20021;-47
2023/04/23 00:29:42;;;;;;;7.95;7.13;;;21.30;44.40;;;;;;5047087;28;20073;-49
2023/04/23 00:32:08;;;;;;;7.18;6.28;;;21.30;44.40;;;;;;5046470;28;20036;-47
2023/04/23 00:34:34;;;;;;;8.63;7.32;;;21.30;44.30;;;;;;5045698;28;20449;-50
2023/04/23 00:37:04;;;;;;;8.45;7.55;;;21.30;44.30;;;;;;5046050;28;20075;-48
2023/04/23 00:39:30;;;;;;;7.63;6.82;;;21.30;44.30;;;;;;5052770;28;20155;-45
2023/04/23 00:41:57;;;;;;;7.13;6.43;;;21.30;44.30;;;;;;5047981;28;20439;-46
2023/04/23 00:44:23;;;;;;;8.52;7.60;;;21.30;44.30;;;;;;5041400;28;20045;-47
2023/04/23 00:46:49;;;;;;;8.25;6.88;;;21.30;44.20;;;;;;5043451;28;20444;-45
2023/04/23 00:49:17;;;;;;;8.75;7.15;;;21.30;44.20;;;;;;5047230;28;20059;-47
2023/04/23 00:51:43;;;;;;;8.55;7.65;;;21.30;44.20;;;;;;5046867;28;20029;-48
2023/04/23 00:54:09;;;;;;;10.77;8.05;;;21.30;44.10;;;;;;5049067;28;20086;-47
2023/04/23 00:56:35;;;;;;;9.25;8.07;;;21.30;44.10;;;;;;5050081;28;20058;-45
2023/04/23 00:59:02;;;;;;;8.63;7.72;;;21.30;44.10;;;;;;5045356;28;20037;-46
2023/04/23 01:01:29;;;;;;;8.85;7.75;;;21.30;44.10;;;;;;5046197;28;20100;-49
2023/04/23 01:03:55;;;;;;;9.65;7.78;;;21.30;44.00;;;;;;5048127;28;20445;-49
2023/04/23 01:06:23;;;;;;;9.20;8.00;;;21.30;44.00;;;;;;5048304;28;20050;-48
2023/04/23 01:08:50;;;;;;;9.27;8.00;;;21.30;44.00;;;;;;5072146;28;20123;-45
2023/04/23 01:11:16;;;;;;;10.13;8.38;;;21.30;43.90;;;;;;5045963;28;20342;-48
2023/04/23 01:13:42;;;;;;;9.88;8.60;;;21.30;43.90;;;;;;5048541;28;20112;-46
2023/04/23 01:16:09;;;;;;;10.45;8.38;;;21.30;43.80;;;;;;5042616;28;20037;-51
2023/04/23 01:18:36;;;;;;;9.00;8.10;;;21.30;43.80;;;;;;5042526;28;20036;-46
2023/04/23 01:21:03;;;;;;;10.20;8.35;;;21.30;43.80;;;;;;5050228;28;20516;-53
2023/04/23 01:23:30;;;;;;;9.65;8.02;;;21.30;43.70;;;;;;5054401;28;20068;-50
2023/04/23 01:25:57;;;;;;;9.65;8.07;;;21.30;43.70;;;;;;5053681;28;20044;-50
2023/04/23 01:28:23;;;;;;;10.32;8.40;;;21.30;43.70;;;;;;5053007;28;20031;-52
2023/04/23 01:30:49;;;;;;;10.25;8.63;;;21.30;43.60;;;;;;5051134;28;20025;-51
2023/04/23 01:33:16;;;;;;;10.45;8.52;;;21.30;43.60;;;;;;5052089;28;20029;-49
2023/04/23 01:35:42;;;;;;;9.63;8.35;;;21.30;43.60;;;;;;5051332;28;20425;-51
2023/04/23 01:38:10;;;;;;;10.73;8.48;;;21.30;43.60;;;;;;5046122;28;20021;-50
2023/04/23 01:40:37;;;;;;;9.35;8.15;;;21.30;43.60;;;;;;5046505;28;20045;-47
2023/04/23 01:43:04;;;;;;;10.07;8.20;;;21.30;43.50;;;;;;5053300;28;20368;-45
2023/04/23 01:45:30;;;;;;;9.07;7.97;;;21.30;43.50;;;;;;5049288;28;20088;-45
2023/04/23 01:47:58;;;;;;;9.98;8.70;;;21.30;43.50;;;;;;5057741;28;20087;-50
2023/04/23 01:50:25;;;;;;;9.55;8.48;;;21.30;43.40;;;;;;5048385;28;20025;-48
2023/04/23 01:52:52;;;;;;;10.48;8.35;;;21.30;43.40;;;;;;5051096;28;20025;-49
2023/04/23 01:55:19;;;;;;;9.07;8.07;;;21.30;43.40;;;;;;5050717;28;20033;-48
2023/04/23 01:57:46;;;;;;;10.85;9.15;;;21.30;43.40;;;;;;5052351;28;20399;-50
2023/04/23 02:00:13;;;;;;;10.00;8.95;;;21.30;43.40;;;;;;5048590;28;20083;-47
2023/04/23 02:02:41;;;;;;;10.45;8.45;;;21.30;43.30;;;;;;5046930;28;20069;-47
2023/04/23 02:05:18;;;;;;;9.60;8.45;;;21.30;43.30;;;;;;5051362;28;20033;-46
2023/04/23 02:07:46;;;;;;;9.82;8.40;;;21.30;43.30;;;;;;5047933;28;20391;-45
2023/04/23 02:10:14;;;;;;;9.80;8.32;;;21.30;43.40;;;;;;5036509;28;20433;-50
2023/04/23 02:12:40;;;;;;;10.50;8.60;;;21.30;43.50;;;;;;5049041;28;20029;-53
2023/04/23 02:15:09;;;;;;;9.85;8.85;;;21.30;43.40;;;;;;5050712;28;20029;-47
2023/04/23 02:17:35;;;;;;;9.75;8.40;;;21.30;43.40;;;;;;5052744;28;20078;-52
2023/04/23 02:20:02;;;;;;;9.85;8.38;;;21.30;43.90;;;;;;5051155;28;20060;-51
2023/04/23 02:22:28;;;;;;;9.45;8.25;;;21.30;43.30;;;;;;5048441;28;20053;-46
2023/04/23 02:24:54;;;;;;;9.82;8.82;;;21.30;43.30;;;;;;5048712;28;20025;-45
2023/04/23 02:27:20;;;;;;;9.02;7.85;;;21.30;43.30;;;;;;5043218;28;20032;-47
2023/04/23 02:29:47;;;;;;;9.32;8.00;;;21.30;43.30;;;;;;5052011;28;20044;-45
2023/04/23 02:32:14;;;;;;;9.30;8.00;;;21.30;43.30;;;;;;5050282;28;20128;-48
2023/04/23 02:34:40;;;;;;;8.43;7.55;;;21.30;43.30;;;;;;5047948;28;20025;-47
2023/04/23 02:37:06;;;;;;;8.85;7.93;;;21.40;43.30;;;;;;5055298;28;20070;-46
2023/04/23 02:39:32;;;;;;;10.23;8.90;;;21.30;43.20;;;;;;5047956;28;20024;-45
2023/04/23 02:41:58;;;;;;;9.93;8.23;;;21.30;43.20;;;;;;5048420;28;20373;-47
2023/04/23 02:44:24;;;;;;;9.45;8.45;;;21.30;43.20;;;;;;5051615;28;20053;-49
2023/04/23 02:46:51;;;;;;;8.65;7.68;;;21.30;43.20;;;;;;5051079;28;20076;-51
2023/04/23 02:49:18;;;;;;;9.63;8.32;;;21.30;43.20;;;;;;5048856;28;20134;-46
2023/04/23 02:51:45;;;;;;;9.77;8.07;;;21.30;43.20;;;;;;5051755;28;20033;-45
2023/04/23 02:54:13;;;;;;;9.43;7.97;;;21.30;43.20;;;;;;5052878;28;20039;-49
2023/04/23 02:56:39;;;;;;;8.18;7.38;;;21.30;43.10;;;;;;5048141;28;20357;-46
2023/04/23 02:59:05;;;;;;;8.52;7.40;;;21.30;43.10;;;;;;5052450;28;20032;-45
2023/04/23 03:01:31;;;;;;;8.38;7.47;;;21.30;43.10;;;;;;5046853;28;20036;-51
2023/04/23 03:03:57;;;;;;;9.27;8.25;;;21.30;43.10;;;;;;5046048;28;20048;-49
2023/04/23 03:06:24;;;;;;;8.43;7.25;;;21.30;43.10;;;;;;5049019;28;20486;-47
2023/04/23 03:08:49;;;;;;;8.55;7.65;;;21.30;43.10;;;;;;5052528;28;20059;-48
2023/04/23 03:11:15;;;;;;;9.77;8.07;;;21.30;43.10;;;;;;5049187;28;20045;-45
2023/04/23 03:13:41;;;;;;;8.20;7.28;;;21.30;43.10;;;;;;5049087;28;20452;-51
2023/04/23 03:16:08;;;;;;;10.13;8.15;;;21.30;43.00;;;;;;5048773;28;20029;-49
2023/04/23 03:18:34;;;;;;;8.85;7.50;;;21.30;43.00;;;;;;5054264;28;20024;-51
2023/04/23 03:21:00;;;;;;;8.50;7.65;;;21.30;43.00;;;;;;5047904;28;20360;-50
2023/04/23 03:23:26;;;;;;;9.93;7.85;;;21.30;43.00;;;;;;5045764;28;20045;-47
2023/04/23 03:25:52;;;;;;;8.50;7.38;;;21.30;42.90;;;;;;5045906;28;20492;-49
2023/04/23 03:28:18;;;;;;;8.55;7.65;;;21.30;42.90;;;;;;5050767;28;20067;-50
2023/04/23 03:30:44;;;;;;;10.02;7.43;;;21.30;42.90;;;;;;5043407;28;20040;-49
2023/04/23 03:33:10;;;;;;;8.23;7.18;;;21.30;42.90;;;;;;5047776;28;20025;-50
2023/04/23 03:35:36;;;;;;;8.48;7.63;;;21.30;42.90;;;;;;5046768;28;20112;-50
2023/04/23 03:38:06;;;;;;;8.27;7.03;;;21.30;42.80;;;;;;5045194;28;20065;-52
2023/04/23 03:40:34;;;;;;;8.57;7.38;;;21.30;42.80;;;;;;5041887;28;20095;-53
2023/04/23 03:43:02;;;;;;;8.23;6.88;;;21.30;42.80;;;;;;5046885;28;20041;-49
2023/04/23 03:45:47;;;;;;;8.70;7.32;;;21.30;42.80;;;;;;5050271;28;20060;-50
2023/04/23 03:48:12;;;;;;;9.52;7.65;;;21.30;42.70;;;;;;5043450;28;20034;-50
2023/04/23 03:50:39;;;;;;;9.40;7.93;;;21.20;42.70;;;;;;5045225;28;20078;-47
2023/04/23 03:53:27;;;;;;;8.55;7.60;;;21.30;42.70;;;;;;5049147;28;20357;-48
2023/04/23 03:56:11;;;;;;;8.95;7.57;;;21.20;42.60;;;;;;5043912;28;20128;-45
2023/04/23 03:58:46;;;;;;;8.70;7.65;;;21.20;42.60;;;;;;5048474;28;20060;-46
2023/04/23 04:01:12;;;;;;;7.60;6.82;;;21.20;42.60;;;;;;5046513;28;20055;-48
2023/04/23 04:03:39;;;;;;;7.95;7.15;;;21.30;42.60;;;;;;5050699;28;20064;-46
2023/04/23 04:06:06;;;;;;;8.75;7.40;;;21.20;42.60;;;;;;5047558;28;20025;-49
2023/04/23 04:08:32;;;;;;;7.88;7.03;;;21.20;42.60;;;;;;5050155;28;20032;-47
2023/04/23 04:11:00;;;;;;;7.75;6.80;;;21.20;42.50;;;;;;5044046;28;20052;-49
2023/04/23 04:13:25;;;;;;;8.63;7.72;;;21.20;42.50;;;;;;5042593;28;20029;-49
2023/04/23 04:15:51;;;;;;;7.90;6.35;;;21.20;42.50;;;;;;5048738;28;20353;-47
2023/04/23 04:18:17;;;;;;;8.38;7.10;;;21.20;42.50;;;;;;5051893;28;20071;-48
2023/04/23 04:20:44;;;;;;;8.52;7.10;;;21.20;42.50;;;;;;5046371;28;20021;-53
2023/04/23 04:23:10;;;;;;;8.07;6.68;;;21.20;42.50;;;;;;5047779;28;20095;-52
2023/04/23 04:25:38;;;;;;;6.95;6.25;;;21.20;42.50;;;;;;5051912;28;20036;-51
2023/04/23 04:28:06;;;;;;;7.95;6.72;;;21.20;42.50;;;;;;5044070;28;20326;-49
2023/04/23 04:30:33;;;;;;;9.05;7.78;;;21.20;42.50;;;;;;5049471;28;20021;-46
2023/04/23 04:33:00;;;;;;;8.32;7.18;;;21.20;42.50;;;;;;5046938;28;20025;-45
2023/04/23 04:35:26;;;;;;;7.95;7.15;;;21.20;42.50;;;;;;5047904;28;20037;-46
2023/04/23 04:37:53;;;;;;;8.50;7.03;;;21.20;42.50;;;;;;5044957;28;20047;-51
2023/04/23 04:40:19;;;;;;;8.15;7.30;;;21.20;42.50;;;;;;5049552;28;20040;-47
2023/04/23 04:42:45;;;;;;;8.52;7.30;;;21.20;42.50;;;;;;5049503;28;20037;-46
2023/04/23 04:45:11;;;;;;;9.00;6.95;;;21.20;42.50;;;;;;5047731;28;20404;-48
2023/04/23 04:47:37;;;;;;;8.27;6.82;;;21.20;42.50;;;;;;5049956;28;20040;-44
2023/04/23 04:50:04;;;;;;;7.07;6.35;;;21.20;42.50;;;;;;5053089;28;20076;-48
2023/04/23 04:52:30;;;;;;;7.45;6.72;;;21.20;42.60;;;;;;5047307;28;20476;-48
2023/04/23 04:54:56;;;;;;;8.40;6.72;;;21.20;42.60;;;;;;5048891;28;20040;-45
2023/04/23 04:57:22;;;;;;;8.18;6.60;;;21.20;42.60;;;;;;5053348;28;20024;-44
2023/04/23 04:59:48;;;;;;;7.55;6.75;;;21.20;42.60;;;;;;5053679;28;20350;-47
2023/04/23 05:02:15;;;;;;;7.85;7.05;;;21.20;42.60;;;;;;5048985;28;20376;-50
2023/04/23 05:04:40;;;;;;;7.43;6.22;;;21.20;42.70;;;;;;5048584;28;20041;-48
2023/04/23 05:07:06;;;;;;;7.40;6.47;;;21.20;42.70;;;;;;5051996;28;20103;-45
2023/04/23 05:09:32;;;;;;;6.80;6.10;;;21.20;42.70;;;;;;5053084;28;20021;-46
2023/04/23 05:11:58;;;;;;;7.28;5.93;;;21.20;42.70;;;;;;5052853;28;21706;-49
2023/04/23 05:14:25;;;;;;;7.68;6.15;;;21.20;42.70;;;;;;5050058;28;20027;-46
2023/04/23 05:16:51;;;;;;;8.20;6.60;;;21.20;42.70;;;;;;5050588;28;20035;-49
2023/04/23 05:19:17;;;;;;;6.80;5.38;;;21.20;42.70;;;;;;5057614;28;20036;-50
2023/04/23 05:21:42;;;;;;;6.03;5.43;;;21.20;43.40;;;;;;5049686;28;20063;-50
2023/04/23 05:24:08;;;;;;;5.85;5.25;;;21.20;42.80;;;;;;5050750;28;20053;-46
2023/04/23 05:26:34;;;;;;;6.95;5.93;;;21.20;42.90;;;;;;5048153;28;20086;-47
2023/04/23 05:29:00;;;;;;;7.10;5.00;;;21.20;43.00;;;;;;5052754;28;20025;-46
2023/04/23 05:31:26;;;;;;;6.10;5.43;;;21.20;43.00;;;;;;5051937;28;20029;-46
2023/04/23 05:33:52;;;;;;;5.93;5.00;;;21.20;43.10;;;;;;5050578;28;20041;-47
2023/04/23 05:36:18;;;;;;;5.82;5.22;;;21.20;43.10;;;;;;5051162;28;20771;-46
2023/04/23 05:38:43;;;;;;;8.80;4.85;;;21.20;43.20;;;;;;5051968;28;20021;-48
2023/04/23 05:41:09;;;;;;;6.13;4.75;;;21.20;43.20;;;;;;5051215;28;20464;-46
2023/04/23 05:43:35;;;;;;;5.75;5.15;;;21.20;43.20;;;;;;5055955;28;20037;-51
2023/04/23 05:46:03;;;;;;;5.22;4.72;;;21.20;43.30;;;;;;5044306;28;20045;-46
2023/04/23 05:48:29;;;;;;;4.82;4.43;;;21.20;43.30;;;;;;5056717;28;20502;-50
2023/04/23 05:50:55;;;;;;;5.40;4.50;;;21.10;43.30;;;;;;5048800;28;20030;-49
2023/04/23 05:53:21;;;;;;;5.68;4.80;;;21.10;43.40;;;;;;5050041;28;20036;-46
2023/04/23 05:55:46;;;;;;;5.45;4.80;;;21.10;43.40;;;;;;5050557;28;20449;-44
2023/04/23 05:58:13;;;;;;;6.05;4.63;;;21.10;43.40;;;;;;5053507;28;20025;-48
2023/04/23 06:00:39;;;;;;;6.43;5.07;;;21.10;43.50;;;;;;5050558;28;20028;-44
2023/04/23 06:03:06;;;;;;;5.82;5.00;;;21.10;43.50;;;;;;5050975;28;20182;-48
2023/04/23 06:05:32;;;;;;;5.68;4.97;;;21.10;43.50;;;;;;5050358;28;20033;-49
2023/04/23 06:07:57;;;;;;;5.80;4.82;;;21.10;43.60;;;;;;5052479;28;20377;-45
2023/04/23 06:10:23;;;;;;;5.68;4.57;;;21.10;43.60;;;;;;5056810;28;20091;-49
2023/04/23 06:12:49;;;;;;;6.28;4.40;;;21.10;43.60;;;;;;5062615;28;20032;-51
2023/04/23 06:15:15;;;;;;;4.20;3.80;;;21.10;43.80;;;;;;5057918;28;20313;-46
2023/04/23 06:17:42;;;;;;;4.35;3.95;;;21.10;43.80;;;;;;5063090;28;20028;-46
2023/04/23 06:20:10;;;;;;;4.88;4.15;;;21.10;43.90;;;;;;5077366;28;20106;-45
2023/04/23 06:22:37;;;;;;;4.57;4.13;;;21.10;43.90;;;;;;5059267;28;20040;-47
2023/04/23 06:25:04;;;;;;;5.57;4.43;;;21.10;44.00;;;;;;5057113;28;20033;-49
2023/04/23 06:27:31;;;;;;;5.35;4.00;;;21.10;44.00;;;;;;5047318;28;20063;-52
2023/04/23 06:30:02;;;;;;;5.07;3.90;;;21.10;44.00;;;;;;5056136;28;20065;-54
2023/04/23 06:32:28;;;;;;;4.63;4.07;;;21.10;44.10;;;;;;5055679;28;20029;-52
2023/04/23 06:34:54;;;;;;;4.05;3.53;;;21.10;44.20;;;;;;5055978;28;20103;-45
2023/04/23 06:37:19;;;;;;;5.10;3.58;;;21.10;44.30;;;;;;5054989;28;20104;-49
2023/04/23 06:39:45;;;;;;;4.18;3.78;;;21.10;44.30;;;;;;5073582;28;20041;-46
2023/04/23 06:42:11;;;;;;;4.75;3.33;;;21.10;44.30;;;;;;5076792;28;20402;-46
2023/04/23 06:44:48;;;;;;;5.55;3.75;;;21.10;44.40;;;;;;5045738;28;20042;-49
2023/04/23 06:47:13;;;;;;;3.72;3.33;;;21.10;44.40;;;;;;5046962;28;20112;-50
2023/04/23 06:49:40;;;;;;;3.92;3.15;;;21.00;44.30;;;;;;5050244;28;20021;-46
2023/04/23 06:52:06;;;;;;;4.10;3.35;;;21.10;44.40;;;;;;5054810;28;20028;-49
2023/04/23 06:54:31;;;;;;;3.80;3.45;;;21.10;44.50;;;;;;5056341;28;20102;-46
2023/04/23 06:56:57;;;;;;;3.65;3.03;;;21.10;44.50;;;;;;5056416;28;20036;-48
2023/04/23 06:59:23;;;;;;;3.25;2.90;;;21.10;44.50;;;;;;5055177;28;20029;-48
2023/04/23 07:01:52;;;;;;;3.30;2.83;;;21.10;44.60;;;;;;5051945;28;20071;-47
2023/04/23 07:04:18;;;;;;;3.72;2.92;;;21.10;44.60;;;;;;5051969;28;20044;-50
2023/04/23 07:06:44;;;;;;;3.35;2.88;;;21.10;44.70;;;;;;5050403;28;20090;-47
2023/04/23 07:09:10;;;;;;;3.00;2.70;;;21.10;44.70;;;;;;5041923;28;20029;-52
2023/04/23 07:11:36;;;;;;;3.17;2.80;;;21.10;44.70;;;;;;5051677;28;20428;-49
2023/04/23 07:14:02;;;;;;;2.75;2.30;;;21.10;44.80;;;;;;5059178;28;20043;-53
2023/04/23 07:16:32;;;;;;;3.22;2.63;;;21.10;44.90;;;;;;5041818;28;20033;-49
2023/04/23 07:19:00;;;;;;;3.00;2.50;;;21.10;44.90;;;;;;5048546;28;20021;-48
2023/04/23 07:21:27;;;;;;;2.85;2.53;;;21.10;45.00;;;;;;5051458;28;20125;-49
2023/04/23 07:23:55;;;;;;;4.97;2.72;;;21.10;45.00;;;;;;5048601;28;20075;-48
2023/04/23 07:26:21;;;;;;;4.95;2.83;;;21.10;45.00;;;;;;5066367;28;20325;-48
2023/04/23 07:28:47;;;;;;;4.07;2.97;;;21.10;45.10;;;;;;5053917;28;20056;-47
2023/04/23 07:31:13;;;;;;;2.80;2.28;;;21.10;45.20;;;;;;5071880;28;20064;-45
2023/04/23 07:33:39;;;;;;;3.63;2.83;;;21.10;45.20;;;;;;5059821;28;20025;-47
2023/04/23 07:36:05;;;;;;;3.72;2.80;;;21.10;45.20;;;;;;5047301;28;20342;-47
2023/04/23 07:38:31;;;;;;;2.85;2.00;;;21.10;45.20;;;;;;5040213;28;20044;-48
2023/04/23 07:40:56;;;;;;;2.63;2.30;;;21.10;45.20;;;;;;5040442;28;20032;-45
2023/04/23 07:43:22;;;;;;;3.28;2.30;;;21.10;45.20;;;;;;5043084;28;20524;-47
2023/04/23 07:45:48;;;;;;;4.63;2.85;;;21.10;45.20;;;;;;5055080;28;20151;-46
2023/04/23 07:48:14;;;;;;;4.18;2.53;;;21.10;45.20;;;;;;5044317;28;20350;-45
2023/04/23 07:50:40;;;;;;;4.03;2.97;;;21.20;45.30;;;;;;5043168;28;20047;-44
2023/04/23 07:53:05;;;;;;;3.47;2.60;;;21.20;45.30;;;;;;5046191;28;20029;-45
2023/04/23 07:55:31;;;;;;;2.50;2.30;;;21.10;45.20;;;;;;5042847;28;20029;-45
2023/04/23 07:57:57;;;;;;;3.42;2.60;;;21.10;45.20;;;;;;5039988;28;20360;-45
2023/04/23 08:00:23;;;;;;;2.25;2.05;;;21.20;45.20;;;;;;5041660;28;20317;-46
2023/04/23 08:02:50;;;;;;;2.70;2.13;;;21.20;45.20;;;;;;5035543;28;20052;-51
2023/04/23 08:05:16;;;;;;;3.47;2.25;;;21.20;45.20;;;;;;5043753;28;20459;-50
2023/04/23 08:07:41;;;;;;;2.53;2.05;;;21.20;45.20;;;;;;5041675;28;20025;-47
2023/04/23 08:10:10;;;;;;;2.67;2.30;;;21.20;45.20;;;;;;5047553;28;20203;-48
2023/04/23 08:12:36;;;;;;;2.70;2.03;;;21.20;45.20;;;;;;5049247;28;20112;-46
2023/04/23 08:15:02;;;;;;;5.88;2.33;;;21.20;45.20;;;;;;5056003;28;20179;-43
2023/04/23 08:17:35;;;;;;;3.10;2.00;;;21.20;45.20;;;;;;5046163;28;20058;-46
2023/04/23 08:20:02;;;;;;;2.88;2.25;;;21.20;45.30;;;;;;5041685;28;20511;-47
2023/04/23 08:22:28;;;;;;;2.38;2.15;;;21.20;45.30;;;;;;5044825;28;20048;-44
2023/04/23 08:24:54;;;;;;;2.92;2.13;;;21.20;45.30;;;;;;5048680;28;20732;-43
2023/04/23 08:27:20;;;;;;;2.33;1.90;;;21.20;45.20;;;;;;5057539;28;20020;-45
2023/04/23 08:29:45;;;;;;;2.70;1.80;;;21.20;45.30;;;;;;5054235;28;20029;-51
2023/04/23 08:32:11;;;;;;;2.53;1.90;;;21.20;45.30;;;;;;5051881;28;20305;-45
2023/04/23 08:34:37;;;;;;;2.42;2.15;;;21.20;45.40;;;;;;5047000;28;20108;-48
2023/04/23 08:37:03;;;;;;;2.17;1.63;;;21.20;45.40;;;;;;5038068;28;20034;-53
2023/04/23 08:39:31;;;;;;;2.22;1.80;;;21.20;45.10;;;;;;5042819;28;20033;-51
2023/04/23 08:42:05;;;;;;;2.88;2.00;;;21.20;44.90;;;;;;5043330;28;20107;-50
2023/04/23 08:44:32;;;;;;;2.47;1.70;;;21.20;44.80;;;;;;5038333;28;20045;-44
2023/04/23 08:47:01;;;;;;;2.00;1.80;;;21.20;44.70;;;;;;5037626;28;20056;-49
2023/04/23 08:49:32;;;;;;;2.60;1.60;;;21.20;44.60;;;;;;5040129;28;20033;-50
2023/04/23 08:52:15;;;;;;;2.88;1.77;;;21.20;44.70;;;;;;5041396;28;20033;-49
2023/04/23 08:54:47;;;;;;;2.40;1.63;;;21.20;44.80;;;;;;5039081;28;20055;-48
2023/04/23 08:57:16;;;;;;;3.50;1.95;;;21.30;45.00;;;;;;5052572;28;20103;-44
2023/04/23 08:59:43;;;;;;;3.30;1.80;;;21.30;45.10;;;;;;5050725;28;20094;-48
2023/04/23 09:02:09;;;;;;;3.08;2.00;;;21.30;45.20;;;;;;5054341;28;20029;-47
2023/04/23 09:04:36;;;;;;;3.83;2.10;;;21.30;45.20;;;;;;5054072;28;20116;-45
2023/04/23 09:07:12;;;;;;;3.00;1.92;;;21.30;45.20;;;;;;5056030;28;20060;-47
2023/04/23 09:09:39;;;;;;;3.78;1.85;;;21.30;45.20;;;;;;5060495;28;20094;-45
2023/04/23 09:12:06;;;;;;;3.03;2.10;;;21.30;45.30;;;;;;5064001;28;20025;-46
2023/04/23 09:14:33;;;;;;;6.35;3.22;;;21.30;45.30;;;;;;5063301;28;20021;-49
2023/04/23 09:16:59;;;;;;;10.88;6.60;;;21.40;45.60;;;;;;5053211;28;20028;-48
2023/04/23 09:19:26;;;;;;;12.82;6.63;;;21.40;46.50;;;;;;5069295;28;20337;-47
2023/04/23 09:21:52;;;;;;;11.00;6.40;;;21.40;47.40;;;;;;5062342;28;20028;-49
2023/04/23 09:24:21;;;;;;;10.80;5.85;;;21.40;48.70;;;;;;5060742;28;20037;-48
2023/04/23 09:26:51;;;;;;;10.07;6.70;;;21.50;48.40;;;;;;5054464;28;20037;-45
2023/04/23 09:29:18;;;;;;;13.73;6.88;;;21.50;48.50;;;;;;5053962;28;20071;-47
2023/04/23 09:31:46;;;;;;;11.73;6.85;;;21.50;49.10;;;;;;5053481;28;20036;-51
2023/04/23 09:34:15;;;;;;;12.25;6.35;;;21.50;49.80;;;;;;5054502;28;20032;-50
2023/04/23 09:36:41;;;;;;;10.45;5.13;;;21.50;50.00;;;;;;5074272;28;20395;-45
2023/04/23 09:39:12;;;;;;;11.30;5.65;;;21.60;49.80;;;;;;5062005;28;20035;-46
2023/04/23 09:41:38;;;;;;;10.50;4.53;;;21.60;49.50;;;;;;5056828;28;20043;-48
2023/04/23 09:44:04;;;;;;;13.52;5.63;;;21.60;49.70;;;;;;5057059;28;20041;-48
2023/04/23 09:46:38;;;;;;;16.73;7.53;;;21.70;50.20;;;;;;5055966;28;20132;-47
2023/04/23 09:49:08;;;;;;;12.70;6.40;;;21.70;50.90;;;;;;5041618;28;20465;-45
2023/04/23 09:51:41;;;;;;;14.93;6.93;;;21.70;51.00;;;;;;5056384;28;20356;-45
2023/04/23 09:54:24;;;;;;;18.13;7.80;;;21.80;51.40;;;;;;5056433;28;20032;-48
2023/04/23 09:56:52;;;;;;;7.97;5.03;;;21.80;52.10;;;;;;5057138;28;20029;-51
2023/04/23 09:59:29;;;;;;;9.55;4.50;;;21.80;51.40;;;;;;5063503;28;20039;-46
2023/04/23 10:01:55;;;;;;;6.55;3.30;;;21.80;50.10;;;;;;5065258;28;20075;-52
2023/04/23 10:04:23;;;;;;;7.68;3.45;;;21.80;49.40;;;;;;5047180;28;20047;-46
2023/04/23 10:07:03;;;;;;;6.30;3.10;;;21.80;49.30;;;;;;5043667;28;20029;-47
2023/04/23 10:09:30;;;;;;;5.82;2.92;;;21.80;49.00;;;;;;5046334;28;20102;-50
2023/04/23 10:12:01;;;;;;;6.18;2.85;;;21.90;48.60;;;;;;5049428;28;20047;-48
2023/04/23 10:14:28;;;;;;;3.22;2.10;;;21.90;47.90;;;;;;5051112;28;20382;-47
2023/04/23 10:17:02;;;;;;;6.85;2.10;;;21.90;47.50;;;;;;5047622;28;20420;-50
2023/04/23 10:19:28;;;;;;;3.55;1.95;;;21.90;47.70;;;;;;5040400;28;20033;-47
2023/04/23 10:22:04;;;;;;;4.60;1.95;;;22.00;46.80;;;;;;5053084;28;20024;-45
2023/04/23 10:24:36;;;;;;;6.40;2.90;;;21.90;46.30;;;;;;5053319;28;20065;-47
2023/04/23 10:27:04;;;;;;;8.65;4.20;;;22.00;46.30;;;;;;5047969;28;20561;-46
2023/04/23 10:29:34;;;;;;;9.07;5.25;;;22.00;47.10;;;;;;5052347;28;21818;-46
2023/04/23 10:32:06;;;;;;;11.95;5.30;;;22.10;48.30;;;;;;5044686;28;20396;-51
2023/04/23 10:34:32;;;;;;;11.20;4.78;;;22.10;49.80;;;;;;5040320;28;20029;-47
2023/04/23 10:37:00;;;;;;;8.63;4.05;;;22.10;49.30;;;;;;5046891;28;20357;-48
2023/04/23 10:39:29;;;;;;;5.50;2.97;;;22.10;48.80;;;;;;5045951;28;20025;-46
2023/04/23 10:41:56;;;;;;;4.90;2.40;;;22.20;48.00;;;;;;5044825;28;20036;-46
2023/04/23 10:44:21;;;;;;;4.97;2.20;;;22.20;47.30;;;;;;5046982;28;20144;-50
2023/04/23 10:47:00;;;;;;;7.13;2.45;;;22.20;46.70;;;;;;5039996;28;20123;-51
2023/04/23 10:49:30;;;;;;;11.45;5.22;;;22.20;46.40;;;;;;5047030;28;20457;-53
2023/04/23 10:52:13;;;;;;;15.75;6.50;;;22.30;46.70;;;;;;5048727;28;20168;-52
2023/04/23 10:54:43;;;;;;;10.85;5.88;;;22.30;47.30;;;;;;5040082;28;20142;-47
2023/04/23 10:57:10;;;;;;;11.13;4.47;;;22.30;47.90;;;;;;5039329;28;20025;-47
2023/04/23 10:59:53;;;;;;;9.15;4.80;;;22.30;47.80;;;;;;5038271;28;20029;-45
2023/04/23 11:02:21;;;;;;;10.57;4.78;;;22.40;47.50;;;;;;5048239;28;20041;-49
2023/04/23 11:04:54;;;;;;;10.38;5.10;;;22.40;47.50;;;;;;5039459;28;20147;-46
2023/04/23 11:07:33;;;;;;;9.45;5.28;;;22.40;47.70;;;;;;5040382;28;20076;-47
2023/04/23 11:10:10;;;;;;;13.13;4.65;;;22.50;48.00;;;;;;5040583;28;20033;-46
2023/04/23 11:12:38;;;;;;;9.70;4.43;;;22.50;48.20;;;;;;5034728;28;20034;-48
2023/04/23 11:15:13;;;;;;;11.13;4.50;;;22.50;48.10;;;;;;5041090;28;20060;-46
2023/04/23 11:17:46;;;;;;;11.45;5.00;;;22.60;48.10;;;;;;5044827;28;20037;-52
2023/04/23 11:20:14;;;;;;;14.10;5.85;;;22.60;48.00;;;;;;5043462;28;20060;-45
2023/04/23 11:22:45;;;;;;;9.77;5.00;;;22.60;48.40;;;;;;5033749;28;20088;-45
2023/04/23 11:25:12;;;;;;;8.32;3.63;;;22.60;48.50;;;;;;5036955;28;20156;-50
2023/04/23 11:27:44;;;;;;;9.77;4.40;;;22.60;48.00;;;;;;5038802;28;20064;-50
2023/04/23 11:30:13;;;;;;;9.13;3.10;;;22.70;47.20;;;;;;5046639;28;20025;-47
2023/04/23 11:32:40;;;;;;;8.90;2.85;;;22.70;46.60;;;;;;5037156;28;20353;-49
2023/04/23 11:35:08;;;;;;;4.65;2.30;;;22.70;45.90;;;;;;5052608;28;20091;-48
2023/04/23 11:37:39;;;;;;;4.65;2.33;;;22.70;45.30;;;;;;5050954;28;20057;-48
2023/04/23 11:40:12;;;;;;;4.00;1.67;;;22.70;44.70;;;;;;5047220;28;20032;-48
2023/04/23 11:42:46;;;;;;;3.38;1.70;;;22.70;44.10;;;;;;5040695;28;20040;-47
2023/04/23 11:45:22;;;;;;;5.28;1.92;;;22.70;43.70;;;;;;5039112;28;20063;-49
2023/04/23 11:47:54;;;;;;;3.28;1.08;;;22.70;43.20;;;;;;5038466;28;20544;-51
2023/04/23 11:50:26;;;;;;;4.28;1.00;;;22.70;42.90;;;;;;5039988;28;20033;-51
2023/04/23 11:52:52;;;;;;;2.97;1.38;;;22.70;42.70;;;;;;5040544;28;20030;-45
2023/04/23 11:55:19;;;;;;;4.50;1.20;;;22.70;42.50;;;;;;5041238;28;20039;-50
2023/04/23 11:57:49;;;;;;;5.72;1.75;;;22.70;42.20;;;;;;5041404;28;20033;-49
2023/04/23 12:00:20;;;;;;;2.28;0.93;;;22.70;42.00;;;;;;5040211;28;20587;-50
2023/04/23 12:03:05;;;;;;;2.10;0.95;;;22.70;41.90;;;;;;5044031;28;20032;-44
2023/04/23 12:05:42;;;;;;;4.10;1.27;;;22.70;41.60;;;;;;5043898;28;20024;-46
2023/04/23 12:08:09;;;;;;;3.90;1.27;;;22.70;41.50;;;;;;5039605;28;20094;-51
2023/04/23 12:10:53;;;;;;;2.17;0.98;;;22.70;41.40;;;;;;5042340;28;20028;-50
2023/04/23 12:13:27;;;;;;;2.67;1.00;;;22.70;41.20;;;;;;5040335;28;20033;-47
2023/04/23 12:15:56;;;;;;;3.75;1.05;;;22.70;41.10;;;;;;5035102;28;20079;-50
2023/04/23 12:18:38;;;;;;;8.07;1.80;;;22.70;41.00;;;;;;5042609;28;20033;-48
2023/04/23 12:21:11;;;;;;;2.58;1.00;;;22.70;40.90;;;;;;5039191;28;20437;-47
2023/04/23 12:23:38;;;;;;;3.03;0.90;;;22.70;40.80;;;;;;5041771;28;20051;-47
2023/04/23 12:26:15;;;;;;;2.30;0.80;;;22.70;40.80;;;;;;5039646;28;21404;-46
2023/04/23 12:28:54;;;;;;;3.33;1.35;;;22.80;40.80;;;;;;5033475;28;20396;-49
2023/04/23 12:31:23;;;;;;;3.05;1.35;;;22.80;40.80;;;;;;5051078;28;20029;-48
2023/04/23 12:34:05;;;;;;;4.90;1.08;;;22.80;40.80;;;;;;5034503;28;20495;-48
2023/04/23 12:36:31;;;;;;;2.10;0.90;;;22.80;40.90;;;;;;5031989;28;20028;-46
2023/04/23 12:39:25;;;;;;;3.00;0.98;;;22.80;40.70;;;;;;5032052;28;20120;-50
2023/04/23 12:41:53;;;;;;;3.63;0.93;;;22.80;40.60;;;;;;5041682;28;20041;-53
2023/04/23 12:44:21;;;;;;;3.03;0.85;;;22.80;40.60;;;;;;5040760;28;20045;-50
2023/04/23 12:46:55;;;;;;;1.70;0.68;;;22.80;40.60;;;;;;5044338;28;20055;-52
2023/04/23 12:49:21;;;;;;;1.75;0.90;;;22.80;40.70;;;;;;5032886;28;20780;-52